createdAt,value
2017-12-13T00:00:34.722Z,1008.12
2017-12-13T00:01:44.605Z,1008.05
2017-12-13T00:02:54.309Z,1008.07
2017-12-13T00:04:04.249Z,1008.12
2017-12-13T00:05:14.323Z,1008.06
2017-12-13T00:06:24.011Z,1008.16
2017-12-13T00:07:33.443Z,1008.08
2017-12-13T00:08:43.121Z,1008.02
2017-12-13T00:09:53.309Z,1008.02
2017-12-13T00:11:03.000Z,1008.06
2017-12-13T00:12:12.693Z,1008.05
2017-12-13T00:13:22.636Z,1008.03
2017-12-13T00:14:32.052Z,1008
2017-12-13T00:15:41.742Z,1008.05
2017-12-13T00:16:51.182Z,1007.93
2017-12-13T00:18:01.161Z,1008
2017-12-13T00:19:10.850Z,1008.07
2017-12-13T00:20:20.542Z,1008.08
2017-12-13T00:21:30.225Z,1008.05
2017-12-13T00:22:39.652Z,1008.14
2017-12-13T00:23:48.572Z,1008.12
2017-12-13T00:24:58.528Z,1008.12
2017-12-13T00:26:08.474Z,1008.22
2017-12-13T00:27:18.417Z,1008.09
2017-12-13T00:28:28.126Z,1008.1
2017-12-13T00:29:38.068Z,1008.16
2017-12-13T00:30:47.776Z,1008.15
2017-12-13T00:31:57.310Z,1008.16
2017-12-13T00:33:07.248Z,1008.19
2017-12-13T00:34:16.944Z,1008.15
2017-12-13T00:35:26.893Z,1008.17
2017-12-13T00:36:36.567Z,1008.14
2017-12-13T00:37:46.263Z,1008.12
2017-12-13T00:38:56.272Z,1008.22
2017-12-13T00:40:06.236Z,1008.17
2017-12-13T00:41:15.945Z,1008.23
2017-12-13T00:42:25.900Z,1008.18
2017-12-13T00:43:35.320Z,1008.19
2017-12-13T00:44:45.008Z,1008.26
2017-12-13T00:45:54.447Z,1008.21
2017-12-13T00:47:03.881Z,1008.23
2017-12-13T00:48:13.316Z,1008.25
2017-12-13T00:49:23.005Z,1008.21
2017-12-13T00:50:32.426Z,1008.28
2017-12-13T00:51:42.122Z,1008.38
2017-12-13T00:52:51.801Z,1008.24
2017-12-13T00:54:01.233Z,1008.27
2017-12-13T00:55:11.173Z,1008.31
2017-12-13T00:56:20.859Z,1008.28
2017-12-13T00:57:31.070Z,1008.24
2017-12-13T00:58:41.020Z,1008.23
2017-12-13T00:59:50.965Z,1008.3
2017-12-13T01:01:00.916Z,1008.25
2017-12-13T01:02:10.338Z,1008.18
2017-12-13T01:03:20.281Z,1008.24
2017-12-13T01:04:30.224Z,1008.12
2017-12-13T01:05:40.178Z,1008.24
2017-12-13T01:06:49.864Z,1008.27
2017-12-13T01:07:59.287Z,1008.2
2017-12-13T01:09:09.234Z,1008.23
2017-12-13T01:10:18.928Z,1008.23
2017-12-13T01:11:28.609Z,1008.26
2017-12-13T01:12:38.295Z,1008.27
2017-12-13T01:13:48.243Z,1008.26
2017-12-13T01:14:58.187Z,1008.34
2017-12-13T01:16:07.904Z,1008.31
2017-12-13T01:17:17.684Z,1008.27
2017-12-13T01:18:27.637Z,1008.33
2017-12-13T01:19:37.590Z,1008.36
2017-12-13T01:20:47.040Z,1008.35
2017-12-13T01:21:56.726Z,1008.47
2017-12-13T01:23:06.415Z,1008.39
2017-12-13T01:24:15.841Z,1008.44
2017-12-13T01:25:25.814Z,1008.46
2017-12-13T01:26:34.984Z,1008.5
2017-12-13T01:27:44.927Z,1008.51
2017-12-13T01:28:54.357Z,1008.55
2017-12-13T01:30:04.054Z,1008.5
2017-12-13T01:31:13.755Z,1008.59
2017-12-13T01:32:23.443Z,1008.58
2017-12-13T01:33:32.875Z,1008.64
2017-12-13T01:34:42.832Z,1008.76
2017-12-13T01:35:52.769Z,1008.52
2017-12-13T01:37:02.713Z,1008.67
2017-12-13T01:38:12.409Z,1008.56
2017-12-13T01:39:22.090Z,1008.62
2017-12-13T01:40:31.788Z,1008.63
2017-12-13T01:41:41.730Z,1008.58
2017-12-13T01:42:51.681Z,1008.63
2017-12-13T01:44:01.637Z,1008.63
2017-12-13T01:45:11.330Z,1008.64
2017-12-13T01:46:21.273Z,1008.64
2017-12-13T01:47:31.248Z,1008.65
2017-12-13T01:48:41.191Z,1008.65
2017-12-13T01:49:50.359Z,1008.54
2017-12-13T01:51:00.047Z,1008.6
2017-12-13T01:52:09.987Z,1008.59
2017-12-13T01:53:20.185Z,1008.63
2017-12-13T01:54:29.609Z,1008.58
2017-12-13T01:55:39.043Z,1008.61
2017-12-13T01:56:48.994Z,1008.55
2017-12-13T01:57:58.928Z,1008.66
2017-12-13T01:59:08.879Z,1008.67
2017-12-13T02:00:18.565Z,1008.68
2017-12-13T02:01:28.253Z,1008.67
2017-12-13T02:02:37.939Z,1008.7
2017-12-13T02:03:47.889Z,1008.72
2017-12-13T02:04:57.571Z,1008.76
2017-12-13T02:06:07.581Z,1008.8
2017-12-13T02:07:17.317Z,1008.78
2017-12-13T02:08:27.013Z,1008.82
2017-12-13T02:09:36.700Z,1008.84
2017-12-13T02:10:46.704Z,1008.83
2017-12-13T02:11:56.119Z,1008.87
2017-12-13T02:13:06.060Z,1008.81
2017-12-13T02:14:15.490Z,1008.85
2017-12-13T02:15:25.450Z,1008.88
2017-12-13T02:16:34.625Z,1008.84
2017-12-13T02:17:44.573Z,1008.84
2017-12-13T02:18:54.519Z,1008.75
2017-12-13T02:20:04.470Z,1008.87
2017-12-13T02:21:13.660Z,1008.89
2017-12-13T02:22:23.619Z,1008.85
2017-12-13T02:23:33.303Z,1008.81
2017-12-13T02:24:42.972Z,1008.89
2017-12-13T02:25:52.651Z,1008.88
2017-12-13T02:27:02.591Z,1008.92
2017-12-13T02:28:12.272Z,1008.86
2017-12-13T02:29:21.960Z,1008.81
2017-12-13T02:30:31.641Z,1008.8
2017-12-13T02:31:41.590Z,1008.85
2017-12-13T02:32:51.527Z,1008.83
2017-12-13T02:34:01.218Z,1008.87
2017-12-13T02:35:10.900Z,1008.82
2017-12-13T02:36:20.595Z,1008.79
2017-12-13T02:37:30.809Z,1008.8
2017-12-13T02:38:40.750Z,1008.81
2017-12-13T02:39:50.178Z,1008.75
2017-12-13T02:41:00.112Z,1008.79
2017-12-13T02:42:09.810Z,1008.77
2017-12-13T02:43:19.499Z,1008.78
2017-12-13T02:44:28.919Z,1008.78
2017-12-13T02:45:38.869Z,1008.74
2017-12-13T02:46:48.576Z,1008.78
2017-12-13T02:47:58.269Z,1008.77
2017-12-13T02:49:07.711Z,1008.76
2017-12-13T02:50:17.649Z,1008.76
2017-12-13T02:51:27.068Z,1008.71
2017-12-13T02:52:37.014Z,1008.74
2017-12-13T02:53:46.716Z,1008.72
2017-12-13T02:54:56.396Z,1008.73
2017-12-13T02:56:06.358Z,1008.78
2017-12-13T02:57:16.047Z,1008.8
2017-12-13T02:58:25.467Z,1008.72
2017-12-13T02:59:34.983Z,1008.68
2017-12-13T03:00:44.929Z,1008.68
2017-12-13T03:01:54.363Z,1008.79
2017-12-13T03:03:03.796Z,1008.69
2017-12-13T03:04:13.228Z,1008.73
2017-12-13T03:05:22.647Z,1008.73
2017-12-13T03:06:32.337Z,1008.67
2017-12-13T03:07:42.022Z,1008.67
2017-12-13T03:08:52.251Z,1008.66
2017-12-13T03:10:01.955Z,1008.68
2017-12-13T03:11:11.636Z,1008.7
2017-12-13T03:12:21.574Z,1008.7
2017-12-13T03:13:30.994Z,1008.7
2017-12-13T03:14:40.945Z,1008.71
2017-12-13T03:15:50.897Z,1008.73
2017-12-13T03:17:00.842Z,1008.7
2017-12-13T03:18:10.781Z,1008.74
2017-12-13T03:19:20.727Z,1008.75
2017-12-13T03:20:30.428Z,1008.71
2017-12-13T03:21:40.151Z,1008.74
2017-12-13T03:22:50.105Z,1008.73
2017-12-13T03:23:59.601Z,1008.7
2017-12-13T03:25:09.065Z,1008.7
2017-12-13T03:26:18.998Z,1008.73
2017-12-13T03:27:28.687Z,1008.71
2017-12-13T03:28:38.128Z,1008.62
2017-12-13T03:29:47.805Z,1008.66
2017-12-13T03:30:57.226Z,1008.66
2017-12-13T03:32:06.922Z,1008.63
2017-12-13T03:33:16.857Z,1008.62
2017-12-13T03:34:26.025Z,1008.6
2017-12-13T03:35:35.782Z,1008.57
2017-12-13T03:36:45.720Z,1008.5
2017-12-13T03:37:55.425Z,1008.42
2017-12-13T03:39:05.357Z,1008.47
2017-12-13T03:40:15.291Z,1008.47
2017-12-13T03:41:24.989Z,1008.47
2017-12-13T03:42:34.671Z,1008.44
2017-12-13T03:43:44.352Z,1008.48
2017-12-13T03:44:54.020Z,1008.45
2017-12-13T03:46:03.701Z,1008.5
2017-12-13T03:47:13.386Z,1008.49
2017-12-13T03:48:23.073Z,1008.52
2017-12-13T03:49:32.498Z,1008.51
2017-12-13T03:50:42.432Z,1008.53
2017-12-13T03:51:51.880Z,1008.5
2017-12-13T03:53:01.557Z,1008.54
2017-12-13T03:54:11.237Z,1008.56
2017-12-13T03:55:21.186Z,1008.53
2017-12-13T03:56:31.133Z,1008.52
2017-12-13T03:57:41.130Z,1008.46
2017-12-13T03:58:50.557Z,1008.5
2017-12-13T04:00:00.495Z,1008.49
2017-12-13T04:01:10.704Z,1008.46
2017-12-13T04:02:20.384Z,1008.48
2017-12-13T04:03:30.080Z,1008.49
2017-12-13T04:04:40.028Z,1008.45
2017-12-13T04:05:49.714Z,1008.48
2017-12-13T04:06:59.142Z,1008.52
2017-12-13T04:08:09.116Z,1008.47
2017-12-13T04:09:18.803Z,1008.45
2017-12-13T04:10:28.735Z,1008.49
2017-12-13T04:11:38.673Z,1008.41
2017-12-13T04:12:48.103Z,1008.46
2017-12-13T04:13:58.039Z,1008.46
2017-12-13T04:15:07.721Z,1008.41
2017-12-13T04:16:17.397Z,1008.46
2017-12-13T04:17:27.082Z,1008.42
2017-12-13T04:18:36.758Z,1008.42
2017-12-13T04:19:46.691Z,1008.47
2017-12-13T04:20:56.629Z,1008.47
2017-12-13T04:22:06.061Z,1008.47
2017-12-13T04:23:16.000Z,1008.5
2017-12-13T04:24:25.692Z,1008.47
2017-12-13T04:25:35.647Z,1008.5
2017-12-13T04:26:45.337Z,1008.49
2017-12-13T04:27:55.033Z,1008.47
2017-12-13T04:29:04.972Z,1008.42
2017-12-13T04:30:14.910Z,1008.5
2017-12-13T04:31:24.327Z,1008.48
2017-12-13T04:32:34.260Z,1008.53
2017-12-13T04:33:44.199Z,1008.46
2017-12-13T04:34:53.871Z,1008.47
2017-12-13T04:36:03.569Z,1008.51
2017-12-13T04:37:13.734Z,1008.48
2017-12-13T04:38:23.424Z,1008.48
2017-12-13T04:39:33.362Z,1008.47
2017-12-13T04:40:43.296Z,1008.46
2017-12-13T04:41:53.236Z,1008.41
2017-12-13T04:43:03.172Z,1008.44
2017-12-13T04:44:13.108Z,1008.39
2017-12-13T04:45:22.529Z,1008.35
2017-12-13T04:46:32.475Z,1008.39
2017-12-13T04:47:42.155Z,1008.34
2017-12-13T04:48:51.837Z,1008.3
2017-12-13T04:50:01.259Z,1008.36
2017-12-13T04:51:11.198Z,1008.33
2017-12-13T04:52:20.897Z,1008.32
2017-12-13T04:53:30.846Z,1008.35
2017-12-13T04:54:40.531Z,1008.35
2017-12-13T04:55:50.214Z,1008.32
2017-12-13T04:57:00.153Z,1008.35
2017-12-13T04:58:09.889Z,1008.3
2017-12-13T04:59:19.615Z,1008.31
2017-12-13T05:00:29.042Z,1008.27
2017-12-13T05:01:39.812Z,1008.3
2017-12-13T05:02:49.493Z,1008.31
2017-12-13T05:03:58.932Z,1008.31
2017-12-13T05:05:08.925Z,1008.29
2017-12-13T05:06:18.351Z,1008.33
2017-12-13T05:07:28.295Z,1008.33
2017-12-13T05:08:37.963Z,1008.32
2017-12-13T05:09:47.901Z,1008.27
2017-12-13T05:10:57.587Z,1008.33
2017-12-13T05:12:07.539Z,1008.29
2017-12-13T05:13:17.229Z,1008.3
2017-12-13T05:14:27.169Z,1008.29
2017-12-13T05:15:36.842Z,1008.31
2017-12-13T05:16:46.273Z,1008.32
2017-12-13T05:17:55.953Z,1008.32
2017-12-13T05:19:05.897Z,1008.34
2017-12-13T05:20:15.563Z,1008.36
2017-12-13T05:21:25.247Z,1008.37
2017-12-13T05:22:35.191Z,1008.34
2017-12-13T05:23:45.140Z,1008.31
2017-12-13T05:24:54.302Z,1008.27
2017-12-13T05:26:04.083Z,1008.26
2017-12-13T05:27:13.783Z,1008.27
2017-12-13T05:28:23.734Z,1008.25
2017-12-13T05:29:33.714Z,1008.26
2017-12-13T05:30:43.658Z,1008.22
2017-12-13T05:31:53.597Z,1008.27
2017-12-13T05:33:03.277Z,1008.22
2017-12-13T05:34:13.231Z,1008.23
2017-12-13T05:35:22.917Z,1008.19
2017-12-13T05:36:32.866Z,1008.22
2017-12-13T05:37:42.556Z,1008.22
2017-12-13T05:38:52.232Z,1008.22
2017-12-13T05:40:02.189Z,1008.19
2017-12-13T05:41:12.132Z,1008.22
2017-12-13T05:42:22.130Z,1008.21
2017-12-13T05:43:32.104Z,1008.23
2017-12-13T05:44:42.051Z,1008.21
2017-12-13T05:45:51.484Z,1008.25
2017-12-13T05:47:01.429Z,1008.24
2017-12-13T05:48:11.375Z,1008.23
2017-12-13T05:49:21.325Z,1008.2
2017-12-13T05:50:31.258Z,1008.19
2017-12-13T05:51:40.939Z,1008.18
2017-12-13T05:52:50.884Z,1008.16
2017-12-13T05:54:00.302Z,1008.16
2017-12-13T05:55:09.986Z,1008.2
2017-12-13T05:56:19.409Z,1008.14
2017-12-13T05:57:29.087Z,1008.12
2017-12-13T05:58:39.049Z,1008.18
2017-12-13T05:59:48.209Z,1008.11
2017-12-13T06:00:57.897Z,1008.13
2017-12-13T06:02:07.577Z,1008.09
2017-12-13T06:03:17.636Z,1008.1
2017-12-13T06:04:27.072Z,1008.12
2017-12-13T06:05:37.038Z,1008.02
2017-12-13T06:06:46.993Z,1007.98
2017-12-13T06:07:56.668Z,1008
2017-12-13T06:09:06.088Z,1008.02
2017-12-13T06:10:15.769Z,1008.02
2017-12-13T06:11:25.711Z,1007.99
2017-12-13T06:12:35.659Z,1007.96
2017-12-13T06:13:45.596Z,1007.99
2017-12-13T06:14:55.286Z,1007.96
2017-12-13T06:16:04.970Z,1007.94
2017-12-13T06:17:14.905Z,1007.93
2017-12-13T06:18:24.846Z,1007.89
2017-12-13T06:19:34.796Z,1007.92
2017-12-13T06:20:44.748Z,1007.93
2017-12-13T06:21:54.176Z,1007.9
2017-12-13T06:23:03.865Z,1007.9
2017-12-13T06:24:13.546Z,1007.84
2017-12-13T06:25:23.256Z,1007.88
2017-12-13T06:26:32.947Z,1007.9
2017-12-13T06:27:42.638Z,1007.91
2017-12-13T06:28:52.815Z,1007.92
2017-12-13T06:30:02.501Z,1007.91
2017-12-13T06:31:12.193Z,1007.9
2017-12-13T06:32:21.881Z,1007.95
2017-12-13T06:33:31.823Z,1007.99
2017-12-13T06:34:41.253Z,1008.03
2017-12-13T06:35:50.930Z,1007.97
2017-12-13T06:37:00.868Z,1007.97
2017-12-13T06:38:10.553Z,1007.96
2017-12-13T06:39:20.245Z,1007.93
2017-12-13T06:40:29.936Z,1007.92
2017-12-13T06:41:39.416Z,1007.94
2017-12-13T06:42:49.103Z,1007.96
2017-12-13T06:43:58.773Z,1007.95
2017-12-13T06:45:08.723Z,1007.91
2017-12-13T06:46:17.897Z,1007.89
2017-12-13T06:47:27.337Z,1007.9
2017-12-13T06:48:37.080Z,1007.94
2017-12-13T06:49:47.033Z,1007.94
2017-12-13T06:50:56.731Z,1007.89
2017-12-13T06:52:06.411Z,1007.89
2017-12-13T06:53:16.102Z,1007.87
2017-12-13T06:54:25.549Z,1007.95
2017-12-13T06:55:35.245Z,1007.94
2017-12-13T06:56:44.961Z,1007.94
2017-12-13T06:57:54.374Z,1007.93
2017-12-13T06:59:04.078Z,1007.86
2017-12-13T07:00:14.046Z,1007.84
2017-12-13T07:01:24.074Z,1007.87
2017-12-13T07:02:34.000Z,1007.83
2017-12-13T07:03:43.676Z,1007.88
2017-12-13T07:04:53.361Z,1007.9
2017-12-13T07:06:03.549Z,1007.82
2017-12-13T07:07:13.233Z,1007.85
2017-12-13T07:08:23.175Z,1007.84
2017-12-13T07:09:32.893Z,1007.84
2017-12-13T07:10:42.578Z,1007.85
2017-12-13T07:11:52.039Z,1007.8
2017-12-13T07:13:02.003Z,1007.86
2017-12-13T07:14:11.966Z,1007.85
2017-12-13T07:15:21.646Z,1007.83
2017-12-13T07:16:31.077Z,1007.81
2017-12-13T07:17:41.029Z,1007.79
2017-12-13T07:18:50.968Z,1007.76
2017-12-13T07:20:00.386Z,1007.78
2017-12-13T07:21:10.077Z,1007.83
2017-12-13T07:22:19.497Z,1007.83
2017-12-13T07:23:29.444Z,1007.74
2017-12-13T07:24:39.197Z,1007.76
2017-12-13T07:25:48.882Z,1007.72
2017-12-13T07:26:58.848Z,1007.73
2017-12-13T07:28:08.527Z,1007.71
2017-12-13T07:29:18.231Z,1007.76
2017-12-13T07:30:28.203Z,1007.74
2017-12-13T07:31:38.174Z,1007.73
2017-12-13T07:32:47.357Z,1007.71
2017-12-13T07:33:57.316Z,1007.69
2017-12-13T07:35:07.287Z,1007.67
2017-12-13T07:36:17.238Z,1007.71
2017-12-13T07:37:26.927Z,1007.66
2017-12-13T07:38:36.881Z,1007.67
2017-12-13T07:39:46.578Z,1007.64
2017-12-13T07:40:56.519Z,1007.68
2017-12-13T07:42:06.481Z,1007.67
2017-12-13T07:43:16.336Z,1007.73
2017-12-13T07:44:26.042Z,1007.71
2017-12-13T07:45:35.492Z,1007.64
2017-12-13T07:46:45.189Z,1007.63
2017-12-13T07:47:54.902Z,1007.65
2017-12-13T07:49:04.880Z,1007.64
2017-12-13T07:50:14.846Z,1007.65
2017-12-13T07:51:24.566Z,1007.58
2017-12-13T07:52:34.283Z,1007.6
2017-12-13T07:53:43.706Z,1007.6
2017-12-13T07:54:53.409Z,1007.57
2017-12-13T07:56:02.846Z,1007.63
2017-12-13T07:57:12.796Z,1007.51
2017-12-13T07:58:22.780Z,1007.51
2017-12-13T07:59:32.487Z,1007.44
2017-12-13T08:00:42.183Z,1007.45
2017-12-13T08:01:51.875Z,1007.43
2017-12-13T08:03:01.838Z,1007.42
2017-12-13T08:04:11.802Z,1007.43
2017-12-13T08:05:21.781Z,1007.34
2017-12-13T08:06:31.470Z,1007.37
2017-12-13T08:07:41.190Z,1007.35
2017-12-13T08:08:50.650Z,1007.39
2017-12-13T08:10:00.352Z,1007.41
2017-12-13T08:11:10.362Z,1007.42
2017-12-13T08:12:19.789Z,1007.43
2017-12-13T08:13:29.754Z,1007.43
2017-12-13T08:14:39.707Z,1007.45
2017-12-13T08:15:49.671Z,1007.41
2017-12-13T08:16:59.623Z,1007.45
2017-12-13T08:18:15.888Z,1007.43
2017-12-13T08:19:25.342Z,1007.41
2017-12-13T08:20:35.043Z,1007.4
2017-12-13T08:21:45.020Z,1007.46
2017-12-13T08:22:54.969Z,1007.37
2017-12-13T08:24:04.666Z,1007.35
2017-12-13T08:25:13.865Z,1007.36
2017-12-13T08:26:23.358Z,1007.32
2017-12-13T08:27:33.058Z,1007.26
2017-12-13T08:28:42.493Z,1007.22
2017-12-13T08:29:52.229Z,1007.23
2017-12-13T08:31:01.919Z,1007.21
2017-12-13T08:32:12.019Z,1007.22
2017-12-13T08:33:21.699Z,1007.13
2017-12-13T08:34:31.669Z,1007.15
2017-12-13T08:35:41.088Z,1007.09
2017-12-13T08:36:50.781Z,1007.08
2017-12-13T08:38:00.218Z,1007.08
2017-12-13T08:39:09.909Z,1007.1
2017-12-13T08:40:19.587Z,1007.14
2017-12-13T08:41:29.537Z,1007.12
2017-12-13T08:42:39.499Z,1007.15
2017-12-13T08:43:49.216Z,1007.17
2017-12-13T08:44:58.938Z,1007.15
2017-12-13T08:46:08.907Z,1007.13
2017-12-13T08:47:19.129Z,1007.08
2017-12-13T08:48:28.829Z,1007.11
2017-12-13T08:49:38.537Z,1007.07
2017-12-13T08:50:48.492Z,1007.01
2017-12-13T08:51:57.672Z,1007.04
2017-12-13T08:53:07.635Z,1007.01
2017-12-13T08:54:17.077Z,1006.98
2017-12-13T08:55:26.832Z,1006.94
2017-12-13T08:56:36.260Z,1006.98
2017-12-13T08:57:46.213Z,1006.97
2017-12-13T08:58:56.165Z,1006.93
2017-12-13T09:00:06.386Z,1006.92
2017-12-13T09:01:16.090Z,1006.93
2017-12-13T09:02:25.800Z,1006.87
2017-12-13T09:03:35.282Z,1006.91
2017-12-13T09:04:45.004Z,1006.84
2017-12-13T09:05:54.711Z,1006.86
2017-12-13T09:07:04.410Z,1006.87
2017-12-13T09:08:13.863Z,1006.89
2017-12-13T09:09:23.856Z,1006.88
2017-12-13T09:10:33.582Z,1006.75
2017-12-13T09:11:43.598Z,1006.79
2017-12-13T09:12:53.768Z,1006.77
2017-12-13T09:14:03.211Z,1006.82
2017-12-13T09:15:12.898Z,1006.73
2017-12-13T09:16:22.847Z,1006.81
2017-12-13T09:17:32.846Z,1006.67
2017-12-13T09:18:42.841Z,1006.65
2017-12-13T09:19:52.305Z,1006.75
2017-12-13T09:21:02.269Z,1006.63
2017-12-13T09:22:11.746Z,1006.61
2017-12-13T09:23:21.487Z,1006.63
2017-12-13T09:24:31.209Z,1006.61
2017-12-13T09:25:41.164Z,1006.63
2017-12-13T09:26:51.428Z,1006.61
2017-12-13T09:28:01.410Z,1006.53
2017-12-13T09:29:10.854Z,1006.49
2017-12-13T09:30:20.328Z,1006.59
2017-12-13T09:31:30.306Z,1006.46
2017-12-13T09:32:39.818Z,1006.49
2017-12-13T09:33:49.781Z,1006.34
2017-12-13T09:34:59.221Z,1006.38
2017-12-13T09:36:09.184Z,1006.32
2017-12-13T09:37:18.883Z,1006.23
2017-12-13T09:38:28.586Z,1006.23
2017-12-13T09:39:38.539Z,1006.26
2017-12-13T09:40:48.548Z,1006.13
2017-12-13T09:41:58.679Z,1006.25
2017-12-13T09:43:08.133Z,1006.11
2017-12-13T09:44:17.867Z,1006.1
2017-12-13T09:45:27.566Z,1006.12
2017-12-13T09:46:37.281Z,1006.06
2017-12-13T09:47:47.009Z,1006.08
2017-12-13T09:48:56.971Z,1006.07
2017-12-13T09:50:06.932Z,1006.07
2017-12-13T09:51:16.943Z,1005.99
2017-12-13T09:52:26.643Z,1005.99
2017-12-13T09:53:36.628Z,1005.93
2017-12-13T09:54:46.635Z,1005.94
2017-12-13T09:55:56.098Z,1005.92
2017-12-13T09:57:05.539Z,1006
2017-12-13T09:58:15.248Z,1006.02
2017-12-13T09:59:24.960Z,1006.02
2017-12-13T10:00:34.453Z,1005.84
2017-12-13T10:01:43.899Z,1005.86
2017-12-13T10:02:53.338Z,1005.89
2017-12-13T10:04:03.502Z,1005.8
2017-12-13T10:05:13.210Z,1005.81
2017-12-13T10:06:22.652Z,1005.88
2017-12-13T10:07:32.639Z,1005.68
2017-12-13T10:08:42.400Z,1005.77
2017-12-13T10:09:52.369Z,1005.72
2017-12-13T10:11:02.334Z,1005.73
2017-12-13T10:12:11.768Z,1005.6
2017-12-13T10:13:21.740Z,1005.69
2017-12-13T10:14:31.182Z,1005.7
2017-12-13T10:15:40.355Z,1005.61
2017-12-13T10:16:50.302Z,1005.63
2017-12-13T10:18:00.000Z,1005.58
2017-12-13T10:19:09.454Z,1005.65
2017-12-13T10:20:19.155Z,1005.59
2017-12-13T10:21:29.107Z,1005.5
2017-12-13T10:22:39.045Z,1005.64
2017-12-13T10:23:48.871Z,1005.56
2017-12-13T10:24:58.426Z,1005.49
2017-12-13T10:26:08.150Z,1005.54
2017-12-13T10:27:18.101Z,1005.41
2017-12-13T10:28:27.534Z,1005.38
2017-12-13T10:29:37.245Z,1005.37
2017-12-13T10:30:47.205Z,1005.34
2017-12-13T10:31:56.900Z,1005.34
2017-12-13T10:33:06.609Z,1005.22
2017-12-13T10:34:16.570Z,1005.25
2017-12-13T10:35:26.526Z,1005.06
2017-12-13T10:36:35.977Z,1005.14
2017-12-13T10:37:45.923Z,1005.13
2017-12-13T10:38:55.365Z,1005.07
2017-12-13T10:40:04.550Z,1005.18
2017-12-13T10:41:14.001Z,1005.09
2017-12-13T10:42:23.961Z,1005.12
2017-12-13T10:43:33.664Z,1004.99
2017-12-13T10:44:43.623Z,1004.99
2017-12-13T10:45:53.049Z,1004.86
2017-12-13T10:47:03.014Z,1004.89
2017-12-13T10:48:13.006Z,1004.83
2017-12-13T10:49:22.962Z,1004.86
2017-12-13T10:50:32.645Z,1004.85
2017-12-13T10:51:42.612Z,1004.75
2017-12-13T10:52:52.331Z,1004.73
2017-12-13T10:54:02.035Z,1004.66
2017-12-13T10:55:11.738Z,1004.64
2017-12-13T10:56:21.669Z,1004.52
2017-12-13T10:57:31.625Z,1004.68
2017-12-13T10:58:41.333Z,1004.69
2017-12-13T10:59:51.440Z,1004.57
2017-12-13T11:01:01.235Z,1004.53
2017-12-13T11:02:11.005Z,1004.5
2017-12-13T11:03:20.534Z,1004.39
2017-12-13T11:04:30.493Z,1004.44
2017-12-13T11:05:40.191Z,1004.43
2017-12-13T11:06:49.886Z,1004.39
2017-12-13T11:07:59.585Z,1004.34
2017-12-13T11:09:09.546Z,1004.37
2017-12-13T11:10:19.517Z,1004.25
2017-12-13T11:11:29.482Z,1004.16
2017-12-13T11:12:39.464Z,1004.14
2017-12-13T11:13:49.161Z,1004.1
2017-12-13T11:14:58.858Z,1004.09
2017-12-13T11:16:08.804Z,1004.11
2017-12-13T11:17:18.254Z,1004.12
2017-12-13T11:18:28.219Z,1004.08
2017-12-13T11:19:37.948Z,1004.02
2017-12-13T11:20:47.906Z,1004.05
2017-12-13T11:21:57.889Z,1003.98
2017-12-13T11:23:07.631Z,1003.97
2017-12-13T11:24:17.582Z,1003.86
2017-12-13T11:25:27.017Z,1003.83
2017-12-13T11:26:36.718Z,1003.79
2017-12-13T11:27:46.720Z,1003.79
2017-12-13T11:28:56.262Z,1003.75
2017-12-13T11:30:06.389Z,1003.69
2017-12-13T11:31:16.171Z,1003.75
2017-12-13T11:32:25.911Z,1003.7
2017-12-13T11:33:35.716Z,1003.62
2017-12-13T11:34:45.280Z,1003.62
2017-12-13T11:35:55.364Z,1003.63
2017-12-13T11:37:05.441Z,1003.5
2017-12-13T11:38:15.224Z,1003.52
2017-12-13T11:39:25.015Z,1003.49
2017-12-13T11:40:34.972Z,1003.41
2017-12-13T11:41:44.945Z,1003.33
2017-12-13T11:42:54.696Z,1003.37
2017-12-13T11:44:04.419Z,1003.35
2017-12-13T11:45:14.410Z,1003.27
2017-12-13T11:46:24.445Z,1003.29
2017-12-13T11:47:34.478Z,1003.18
2017-12-13T11:48:44.185Z,1003.28
2017-12-13T11:49:54.141Z,1003.19
2017-12-13T11:51:04.127Z,1002.92
2017-12-13T11:52:13.837Z,1003.1
2017-12-13T11:53:23.838Z,1003.18
2017-12-13T11:54:33.558Z,1003.15
2017-12-13T11:55:43.271Z,1003.05
2017-12-13T11:56:53.015Z,1003.08
2017-12-13T11:58:02.485Z,1003.04
2017-12-13T11:59:12.572Z,1002.98
2017-12-13T12:00:22.268Z,1002.91
2017-12-13T12:01:32.250Z,1002.97
2017-12-13T12:02:41.953Z,1002.79
2017-12-13T12:03:51.681Z,1002.86
2017-12-13T12:05:01.670Z,1002.76
2017-12-13T12:06:11.643Z,1002.81
2017-12-13T12:07:21.596Z,1002.79
2017-12-13T12:08:31.345Z,1002.78
2017-12-13T12:09:40.548Z,1002.73
2017-12-13T12:10:50.501Z,1002.64
2017-12-13T12:12:00.205Z,1002.67
2017-12-13T12:13:09.898Z,1002.61
2017-12-13T12:14:19.582Z,1002.65
2017-12-13T12:15:29.556Z,1002.69
2017-12-13T12:16:39.516Z,1002.49
2017-12-13T12:17:49.515Z,1002.58
2017-12-13T12:18:59.253Z,1002.5
2017-12-13T12:20:09.225Z,1002.51
2017-12-13T12:21:18.936Z,1002.38
2017-12-13T12:22:28.908Z,1002.31
2017-12-13T12:23:38.598Z,1002.34
2017-12-13T12:24:48.294Z,1002.36
2017-12-13T12:25:58.002Z,1002.28
2017-12-13T12:27:07.967Z,1002.29
2017-12-13T12:28:17.998Z,1002.34
2017-12-13T12:29:27.950Z,1002.3
2017-12-13T12:30:38.190Z,1002.22
2017-12-13T12:31:48.148Z,1002.35
2017-12-13T12:32:58.090Z,1002.27
2017-12-13T12:34:07.772Z,1002.24
2017-12-13T12:35:17.740Z,1002.22
2017-12-13T12:36:27.436Z,1002.21
2017-12-13T12:37:37.410Z,1002.14
2017-12-13T12:38:46.844Z,1002.26
2017-12-13T12:39:56.540Z,1002.21
2017-12-13T12:41:06.495Z,1002.22
2017-12-13T12:42:16.182Z,1002.09
2017-12-13T12:43:26.128Z,1002.12
2017-12-13T12:44:35.874Z,1002.05
2017-12-13T12:45:46.041Z,1001.98
2017-12-13T12:46:56.202Z,1001.96
2017-12-13T12:48:06.224Z,1001.86
2017-12-13T12:49:16.215Z,1001.6
2017-12-13T12:50:25.916Z,1001.8
2017-12-13T12:51:35.857Z,1001.72
2017-12-13T12:52:45.809Z,1001.66
2017-12-13T12:53:55.746Z,1001.67
2017-12-13T12:55:05.431Z,1001.63
2017-12-13T12:56:14.856Z,1001.55
2017-12-13T12:57:24.792Z,1001.55
2017-12-13T12:58:34.507Z,1001.54
2017-12-13T12:59:44.456Z,1001.51
2017-12-13T13:00:54.172Z,1001.5
2017-12-13T13:02:03.600Z,1001.53
2017-12-13T13:03:13.301Z,1001.52
2017-12-13T13:04:22.488Z,1001.55
2017-12-13T13:05:32.197Z,1001.49
2017-12-13T13:06:42.163Z,1001.41
2017-12-13T13:07:52.117Z,1001.44
2017-12-13T13:09:02.327Z,1001.29
2017-12-13T13:10:12.278Z,1001.28
2017-12-13T13:11:21.995Z,1001.21
2017-12-13T13:12:31.681Z,1001.15
2017-12-13T13:13:41.688Z,1001.18
2017-12-13T13:14:51.620Z,1001.01
2017-12-13T13:16:01.328Z,1001
2017-12-13T13:17:11.027Z,1001.09
2017-12-13T13:18:20.970Z,1001.01
2017-12-13T13:19:30.408Z,1000.92
2017-12-13T13:20:40.370Z,1000.93
2017-12-13T13:21:50.330Z,1000.86
2017-12-13T13:22:59.790Z,1000.82
2017-12-13T13:24:09.775Z,1000.86
2017-12-13T13:25:19.810Z,1000.69
2017-12-13T13:26:29.519Z,1000.68
2017-12-13T13:27:38.959Z,1000.63
2017-12-13T13:28:48.904Z,1000.62
2017-12-13T13:29:58.668Z,1000.61
2017-12-13T13:31:08.363Z,1000.65
2017-12-13T13:32:18.049Z,1000.53
2017-12-13T13:33:28.003Z,1000.56
2017-12-13T13:34:37.694Z,1000.58
2017-12-13T13:35:47.134Z,1000.6
2017-12-13T13:36:56.819Z,1000.52
2017-12-13T13:38:06.772Z,1000.44
2017-12-13T13:39:16.720Z,1000.46
2017-12-13T13:40:26.925Z,1000.45
2017-12-13T13:41:36.636Z,1000.43
2017-12-13T13:42:46.317Z,1000.41
2017-12-13T13:43:56.259Z,1000.38
2017-12-13T13:45:05.469Z,1000.32
2017-12-13T13:46:15.445Z,1000.35
2017-12-13T13:47:25.141Z,1000.35
2017-12-13T13:48:34.845Z,1000.38
2017-12-13T13:49:44.535Z,1000.37
2017-12-13T13:50:54.490Z,1000.31
2017-12-13T13:52:04.434Z,1000.27
2017-12-13T13:53:14.122Z,1000.28
2017-12-13T13:54:23.815Z,1000.32
2017-12-13T13:55:33.777Z,1000.3
2017-12-13T13:56:43.515Z,1000.23
2017-12-13T13:57:53.476Z,1000.2
2017-12-13T13:59:03.171Z,1000.22
2017-12-13T14:00:13.152Z,1000.14
2017-12-13T14:01:23.117Z,1000.06
2017-12-13T14:02:32.846Z,1000.09
2017-12-13T14:03:42.550Z,1000.12
2017-12-13T14:04:51.719Z,1000.12
2017-12-13T14:06:01.685Z,1000.07
2017-12-13T14:07:11.138Z,1000.07